Time;durP1;ratioP1;P1;durP2;ratioP2;P2;SDS_P1;SDS_P2;PMS_P1;PMS_P2;Temp;Humidity;BMP_temperature;BMP_pressure;BME280_temperature;BME280_humidity;BME280_pressure;Samples;Min_cycle;Max_cycle;Signal;HPM_P1;HPM_P2
2021/07/02 00:00:18;;;;;;;4.72;3.10;;;16.30;92.00;;;;;;4875569;29;20072;-85
2021/07/02 00:02:44;;;;;;;6.40;3.30;;;16.30;92.00;;;;;;4879394;29;20053;-85
2021/07/02 00:05:11;;;;;;;4.57;2.47;;;16.30;92.10;;;;;;4879163;29;20090;-85
2021/07/02 00:07:37;;;;;;;4.68;2.67;;;16.20;92.20;;;;;;4879911;29;20028;-85
2021/07/02 00:10:04;;;;;;;6.20;2.90;;;16.20;92.30;;;;;;4880034;29;20033;-85
2021/07/02 00:12:30;;;;;;;5.70;2.80;;;16.20;92.30;;;;;;4894273;29;20026;-85
2021/07/02 00:14:55;;;;;;;6.68;2.92;;;16.20;92.30;;;;;;4875046;29;20416;-85
2021/07/02 00:17:21;;;;;;;10.27;2.92;;;16.20;92.30;;;;;;4869376;29;20025;-83
2021/07/02 00:19:47;;;;;;;5.20;3.10;;;16.20;92.30;;;;;;4878491;29;20119;-84
2021/07/02 00:22:12;;;;;;;4.95;2.83;;;16.20;92.20;;;;;;4872089;29;20041;-83
2021/07/02 00:24:38;;;;;;;5.95;2.95;;;16.20;92.20;;;;;;4877100;29;20463;-83
2021/07/02 00:27:04;;;;;;;7.45;2.90;;;16.20;92.10;;;;;;4863219;29;20060;-83
2021/07/02 00:29:29;;;;;;;6.78;2.80;;;16.10;92.20;;;;;;4869479;29;20504;-83
2021/07/02 00:31:55;;;;;;;6.60;2.97;;;16.10;92.30;;;;;;4867233;29;20036;-85
2021/07/02 00:34:21;;;;;;;5.68;2.90;;;16.00;92.30;;;;;;4864661;29;20100;-85
2021/07/02 00:36:46;;;;;;;5.35;2.90;;;16.00;92.40;;;;;;4879576;29;20017;-84
2021/07/02 00:39:12;;;;;;;5.85;3.33;;;16.00;92.20;;;;;;4877795;29;20052;-84
2021/07/02 00:41:38;;;;;;;4.68;2.92;;;16.10;92.20;;;;;;4869590;29;20447;-87
2021/07/02 00:44:04;;;;;;;5.65;2.90;;;16.10;92.10;;;;;;4875013;29;20025;-81
2021/07/02 00:46:30;;;;;;;5.10;2.90;;;16.10;92.10;;;;;;4862441;29;20117;-81
2021/07/02 00:48:56;;;;;;;4.80;3.05;;;16.10;92.00;;;;;;4870790;29;20038;-83
2021/07/02 00:51:22;;;;;;;4.97;3.08;;;16.10;92.00;;;;;;4874915;29;20620;-82
2021/07/02 00:53:48;;;;;;;8.18;2.80;;;16.10;91.90;;;;;;4868689;29;20032;-82
2021/07/02 00:56:18;;;;;;;6.53;2.72;;;16.10;91.90;;;;;;4878444;29;20116;-84
2021/07/02 00:58:44;;;;;;;4.55;2.53;;;16.10;92.00;;;;;;4866613;29;20171;-83
2021/07/02 01:01:19;;;;;;;5.97;2.90;;;16.10;92.10;;;;;;4890381;29;20108;-80
2021/07/02 01:03:48;;;;;;;4.70;2.75;;;16.10;92.20;;;;;;4879553;29;20028;-78
2021/07/02 01:06:15;;;;;;;7.47;3.15;;;16.00;92.30;;;;;;4880909;29;20024;-77
2021/07/02 01:08:42;;;;;;;3.95;2.53;;;16.00;92.40;;;;;;4896795;29;20028;-79
2021/07/02 01:11:13;;;;;;;4.25;2.65;;;16.10;92.60;;;;;;4880773;29;20024;-77
2021/07/02 01:13:39;;;;;;;3.83;2.72;;;16.00;92.70;;;;;;4895042;29;20028;-77
2021/07/02 01:16:05;;;;;;;7.50;2.90;;;16.10;92.50;;;;;;4897514;29;20021;-77
2021/07/02 01:18:31;;;;;;;4.10;2.72;;;16.10;92.40;;;;;;4880266;29;20025;-77
2021/07/02 01:20:57;;;;;;;4.88;3.22;;;16.10;92.40;;;;;;4880715;29;20430;-77
2021/07/02 01:23:23;;;;;;;5.80;3.00;;;16.10;92.40;;;;;;4880922;29;20036;-78
2021/07/02 01:25:49;;;;;;;6.32;3.25;;;16.10;92.40;;;;;;4880209;29;20024;-78
2021/07/02 01:28:16;;;;;;;6.38;3.00;;;16.10;92.40;;;;;;4889813;29;20020;-78
2021/07/02 01:30:43;;;;;;;7.32;3.10;;;16.10;92.40;;;;;;4882968;29;20054;-78
2021/07/02 01:33:11;;;;;;;6.40;3.50;;;16.10;92.30;;;;;;4900915;29;20043;-77
2021/07/02 01:35:37;;;;;;;11.18;3.10;;;16.10;92.40;;;;;;4898456;29;20504;-78
2021/07/02 01:38:04;;;;;;;6.00;3.03;;;16.00;92.50;;;;;;4884330;29;20020;-77
2021/07/02 01:40:31;;;;;;;7.03;3.22;;;16.00;92.50;;;;;;4883751;29;20123;-78
2021/07/02 01:43:00;;;;;;;4.40;2.75;;;16.00;92.50;;;;;;4897402;29;20072;-78
2021/07/02 01:45:26;;;;;;;6.95;3.25;;;16.00;92.50;;;;;;4883543;29;20107;-81
2021/07/02 01:47:53;;;;;;;7.05;3.28;;;16.00;92.60;;;;;;4900763;29;20017;-79
2021/07/02 01:50:19;;;;;;;5.18;3.20;;;16.00;92.60;;;;;;4900943;29;20052;-78
2021/07/02 01:52:45;;;;;;;7.30;3.33;;;16.00;92.60;;;;;;4883389;29;20443;-78
2021/07/02 01:55:11;;;;;;;7.45;3.50;;;15.90;93.10;;;;;;4900742;29;20051;-78
2021/07/02 01:57:37;;;;;;;6.68;3.28;;;15.90;92.80;;;;;;4883698;29;20466;-78
2021/07/02 02:00:05;;;;;;;6.32;2.90;;;15.90;92.80;;;;;;4900736;29;20065;-78
2021/07/02 02:02:31;;;;;;;5.43;3.28;;;15.80;92.80;;;;;;4883514;29;20036;-78
2021/07/02 02:04:58;;;;;;;5.68;3.22;;;15.80;92.70;;;;;;4883988;29;20043;-78
2021/07/02 02:07:23;;;;;;;6.95;3.53;;;15.80;92.70;;;;;;4900954;29;20021;-78
2021/07/02 02:09:49;;;;;;;7.15;3.25;;;15.80;92.70;;;;;;4883770;29;20458;-78
2021/07/02 02:12:15;;;;;;;6.10;3.10;;;15.80;92.50;;;;;;4884236;29;20488;-79
2021/07/02 02:14:40;;;;;;;5.85;3.20;;;15.80;92.50;;;;;;4884012;29;20025;-78
2021/07/02 02:17:08;;;;;;;8.02;3.40;;;15.80;92.40;;;;;;4901070;29;20438;-78
2021/07/02 02:19:34;;;;;;;6.75;3.38;;;15.70;92.40;;;;;;4883572;29;20032;-79
2021/07/02 02:22:00;;;;;;;8.27;3.38;;;15.70;92.50;;;;;;4884162;29;20028;-79
2021/07/02 02:24:26;;;;;;;5.00;3.03;;;15.70;92.60;;;;;;4884200;29;20036;-78
2021/07/02 02:26:52;;;;;;;6.10;3.40;;;15.60;92.50;;;;;;4883823;29;20031;-78
2021/07/02 02:29:17;;;;;;;6.10;3.45;;;15.50;92.70;;;;;;4884110;29;20040;-78
2021/07/02 02:31:43;;;;;;;7.18;3.67;;;15.50;92.80;;;;;;4883653;29;20529;-79
2021/07/02 02:34:09;;;;;;;8.43;4.05;;;15.50;92.70;;;;;;4883913;29;20036;-78
2021/07/02 02:36:35;;;;;;;5.45;3.25;;;15.50;92.70;;;;;;4883451;29;20027;-79
2021/07/02 02:39:00;;;;;;;6.32;3.65;;;15.50;92.70;;;;;;4900742;29;20103;-78
2021/07/02 02:41:26;;;;;;;5.95;3.90;;;15.50;92.70;;;;;;4882675;29;20112;-78
2021/07/02 02:43:52;;;;;;;6.70;3.30;;;15.50;92.70;;;;;;4883254;29;20077;-78
2021/07/02 02:46:17;;;;;;;6.85;3.35;;;15.50;92.70;;;;;;4883900;29;20025;-79
2021/07/02 02:48:43;;;;;;;6.25;3.92;;;15.50;92.70;;;;;;4899699;29;20482;-78
2021/07/02 02:51:09;;;;;;;6.20;3.05;;;15.50;92.70;;;;;;4883479;29;20474;-78
2021/07/02 02:53:34;;;;;;;6.85;3.50;;;15.50;92.70;;;;;;4883207;29;20355;-77
2021/07/02 02:56:00;;;;;;;6.30;3.70;;;15.50;92.80;;;;;;4883792;29;20036;-78
2021/07/02 02:58:25;;;;;;;7.50;3.65;;;15.50;92.90;;;;;;4900248;29;20103;-78
2021/07/02 03:00:51;;;;;;;7.93;3.72;;;15.50;92.90;;;;;;4883282;29;20036;-78
2021/07/02 03:03:17;;;;;;;7.85;3.78;;;15.50;93.10;;;;;;4883539;29;20088;-78
2021/07/02 03:05:42;;;;;;;7.45;3.90;;;15.50;93.20;;;;;;4899671;29;20478;-78
2021/07/02 03:08:08;;;;;;;7.57;3.88;;;15.50;93.10;;;;;;4900073;29;20028;-78
2021/07/02 03:10:34;;;;;;;6.00;3.35;;;15.60;93.10;;;;;;4882590;29;20036;-78
2021/07/02 03:13:00;;;;;;;8.18;4.20;;;15.50;93.20;;;;;;4900164;29;20492;-78
2021/07/02 03:15:27;;;;;;;8.73;3.95;;;15.50;93.20;;;;;;4900271;29;20374;-78
2021/07/02 03:17:53;;;;;;;8.60;4.18;;;15.50;93.10;;;;;;4882658;29;20051;-78
2021/07/02 03:20:18;;;;;;;7.82;4.13;;;15.50;93.20;;;;;;4883221;29;20085;-78
2021/07/02 03:22:44;;;;;;;9.10;3.85;;;15.40;93.20;;;;;;4882736;29;20479;-79
2021/07/02 03:25:11;;;;;;;7.22;3.58;;;15.50;93.20;;;;;;4883249;29;20021;-78
2021/07/02 03:27:40;;;;;;;9.65;4.28;;;15.50;93.00;;;;;;4882432;29;20450;-78
2021/07/02 03:30:09;;;;;;;7.88;3.75;;;15.50;93.00;;;;;;4899742;29;20035;-77
2021/07/02 03:32:34;;;;;;;6.75;3.65;;;15.50;92.90;;;;;;4898894;29;20021;-79
2021/07/02 03:35:00;;;;;;;7.82;4.30;;;15.50;93.00;;;;;;4882561;29;20457;-78
2021/07/02 03:37:26;;;;;;;7.15;3.50;;;15.50;93.00;;;;;;4899602;29;20029;-78
2021/07/02 03:39:51;;;;;;;9.13;3.53;;;15.50;93.00;;;;;;4899008;29;20474;-78
2021/07/02 03:42:17;;;;;;;8.63;4.20;;;15.50;93.10;;;;;;4882725;29;20063;-78
2021/07/02 03:44:43;;;;;;;7.00;3.63;;;15.50;93.10;;;;;;4882235;29;20450;-77
2021/07/02 03:47:08;;;;;;;6.78;3.70;;;15.50;93.10;;;;;;4899495;29;20028;-77
2021/07/02 03:49:34;;;;;;;10.27;4.05;;;15.50;93.10;;;;;;4898553;29;20048;-77
2021/07/02 03:52:00;;;;;;;10.40;4.30;;;15.40;93.20;;;;;;4881874;29;20060;-79
2021/07/02 03:54:25;;;;;;;6.63;3.90;;;15.40;93.20;;;;;;4882733;29;20081;-79
2021/07/02 03:59:35;;;;;;;7.75;4.10;;;15.30;93.30;;;;;;4899021;29;20036;-80
2021/07/02 04:02:01;;;;;;;8.82;4.43;;;15.30;93.30;;;;;;4882544;29;20454;-80
2021/07/02 04:04:26;;;;;;;9.85;4.45;;;15.30;93.50;;;;;;4899518;29;20127;-80
2021/07/02 04:06:52;;;;;;;10.52;4.10;;;15.20;93.50;;;;;;4882016;29;20028;-77
2021/07/02 04:09:17;;;;;;;7.03;4.18;;;15.20;93.60;;;;;;4898648;29;20084;-78
2021/07/02 04:11:43;;;;;;;8.07;4.22;;;15.20;93.60;;;;;;4881593;29;20105;-77
2021/07/02 04:14:09;;;;;;;10.27;4.43;;;15.20;93.70;;;;;;4882141;29;20458;-77
2021/07/02 04:16:34;;;;;;;10.68;4.40;;;15.20;93.60;;;;;;4881939;29;20081;-87
2021/07/02 04:19:00;;;;;;;7.65;4.18;;;15.20;93.60;;;;;;4881704;29;20447;-78
2021/07/02 04:21:26;;;;;;;8.50;4.13;;;15.20;93.70;;;;;;4881911;29;20488;-77
2021/07/02 04:23:52;;;;;;;6.75;4.00;;;15.20;93.70;;;;;;4881488;29;20095;-78
2021/07/02 04:26:17;;;;;;;9.38;4.25;;;15.20;93.70;;;;;;4881876;29;20028;-77
2021/07/02 04:28:43;;;;;;;6.15;3.80;;;15.20;93.70;;;;;;4881251;29;20477;-78
2021/07/02 04:31:10;;;;;;;8.50;4.03;;;15.10;93.80;;;;;;4881679;29;20044;-77
2021/07/02 04:33:35;;;;;;;7.07;3.95;;;15.10;93.80;;;;;;4881437;29;20517;-87
2021/07/02 04:36:02;;;;;;;6.72;4.10;;;15.10;93.80;;;;;;4898649;29;20103;-79
2021/07/02 04:38:27;;;;;;;6.60;4.13;;;15.10;93.80;;;;;;4898900;29;20100;-78
2021/07/02 04:40:53;;;;;;;8.23;3.88;;;15.10;93.90;;;;;;4881400;29;20451;-78
2021/07/02 04:43:19;;;;;;;9.23;5.00;;;15.10;93.90;;;;;;4898211;29;20080;-80
2021/07/02 04:45:44;;;;;;;10.63;4.22;;;15.10;94.00;;;;;;4881862;29;20084;-79
2021/07/02 04:48:10;;;;;;;8.98;4.32;;;15.10;94.00;;;;;;4898821;29;20462;-79
2021/07/02 04:50:35;;;;;;;10.57;4.57;;;15.10;94.10;;;;;;4881966;29;20071;-79
2021/07/02 04:53:01;;;;;;;8.05;4.88;;;15.10;94.20;;;;;;4897979;29;20533;-79
2021/07/02 04:55:27;;;;;;;8.45;4.50;;;15.10;94.10;;;;;;4898901;29;20032;-79
2021/07/02 04:57:53;;;;;;;8.82;4.20;;;15.10;94.10;;;;;;4881633;29;20450;-78
2021/07/02 05:00:19;;;;;;;10.48;5.22;;;15.00;94.10;;;;;;4882024;29;20478;-79
2021/07/02 05:02:44;;;;;;;12.02;4.55;;;15.00;94.20;;;;;;4898131;29;20061;-79
2021/07/02 05:05:10;;;;;;;9.90;4.63;;;15.00;94.10;;;;;;4881249;29;20025;-79
2021/07/02 05:07:36;;;;;;;9.80;4.40;;;15.10;94.20;;;;;;4881938;29;20083;-79
2021/07/02 05:10:05;;;;;;;9.85;4.90;;;15.10;94.20;;;;;;4898007;29;20024;-79
2021/07/02 05:12:32;;;;;;;11.57;4.93;;;15.10;94.20;;;;;;4898355;29;20033;-79
2021/07/02 05:14:59;;;;;;;8.70;4.47;;;15.10;94.60;;;;;;4881426;29;20201;-81
2021/07/02 05:17:24;;;;;;;12.18;4.70;;;15.20;94.20;;;;;;4898596;29;20028;-79
2021/07/02 05:19:50;;;;;;;10.68;4.78;;;15.20;94.20;;;;;;4898147;29;20039;-79
2021/07/02 05:22:17;;;;;;;10.70;5.00;;;15.20;94.10;;;;;;4881706;29;20039;-78
2021/07/02 05:24:43;;;;;;;11.40;5.00;;;15.20;94.00;;;;;;4897900;29;20025;-78
2021/07/02 05:27:09;;;;;;;6.82;4.25;;;15.20;94.00;;;;;;4898568;29;20033;-79
2021/07/02 05:29:35;;;;;;;10.00;5.10;;;15.30;94.00;;;;;;4881391;29;20043;-79
2021/07/02 05:32:00;;;;;;;12.15;5.10;;;15.30;93.90;;;;;;4881431;29;20025;-78
2021/07/02 05:34:26;;;;;;;10.98;4.50;;;15.30;93.70;;;;;;4863068;29;20033;-78
2021/07/02 05:36:51;;;;;;;9.98;4.68;;;15.40;93.70;;;;;;4878952;29;20029;-77
2021/07/02 05:39:17;;;;;;;8.27;4.28;;;15.40;93.80;;;;;;4879626;29;20088;-78
2021/07/02 05:41:43;;;;;;;11.73;4.57;;;15.40;93.70;;;;;;4879057;29;20029;-79
2021/07/02 05:44:08;;;;;;;9.02;4.18;;;15.40;93.80;;;;;;4879509;29;20061;-78
2021/07/02 05:46:34;;;;;;;8.93;4.80;;;15.50;93.50;;;;;;4862996;29;20040;-78
2021/07/02 05:49:00;;;;;;;9.18;4.22;;;15.50;93.50;;;;;;4861360;29;20029;-78
2021/07/02 05:51:25;;;;;;;8.27;4.38;;;15.60;93.40;;;;;;4879189;29;20061;-78
2021/07/02 05:53:51;;;;;;;9.70;4.35;;;15.60;93.20;;;;;;4862253;29;20052;-78
2021/07/02 05:56:16;;;;;;;8.98;4.57;;;15.70;93.10;;;;;;4862765;29;20356;-78
2021/07/02 05:58:43;;;;;;;11.18;4.47;;;15.80;92.80;;;;;;4861693;29;20036;-82
2021/07/02 06:01:10;;;;;;;8.82;5.40;;;15.90;92.80;;;;;;4862442;29;20057;-78
2021/07/02 06:03:36;;;;;;;10.43;4.85;;;15.90;92.80;;;;;;4862693;29;20510;-79
2021/07/02 06:06:01;;;;;;;10.32;4.68;;;15.90;92.50;;;;;;4862145;29;20022;-79
2021/07/02 06:08:27;;;;;;;8.93;4.63;;;15.80;92.60;;;;;;4862699;29;20029;-79
2021/07/02 06:10:52;;;;;;;9.07;4.38;;;15.80;92.70;;;;;;4878791;29;20025;-79
2021/07/02 06:13:18;;;;;;;7.55;4.80;;;15.80;92.90;;;;;;4861909;29;20080;-80
2021/07/02 06:15:43;;;;;;;8.15;4.25;;;15.80;93.00;;;;;;4879452;29;20481;-80
2021/07/02 06:18:10;;;;;;;8.85;4.43;;;15.90;93.10;;;;;;4865818;29;20033;-79
2021/07/02 06:20:37;;;;;;;7.43;4.70;;;15.90;93.10;;;;;;4882057;29;20037;-78
2021/07/02 06:23:03;;;;;;;7.47;4.40;;;15.90;93.10;;;;;;4882164;29;20041;-78
2021/07/02 06:25:29;;;;;;;8.10;4.30;;;16.00;93.00;;;;;;4866153;29;20073;-78
2021/07/02 06:27:54;;;;;;;8.88;4.45;;;16.00;92.90;;;;;;4881914;29;20067;-78
2021/07/02 06:30:20;;;;;;;7.38;3.75;;;16.10;92.70;;;;;;4882548;29;20095;-79
2021/07/02 06:32:46;;;;;;;7.28;4.38;;;16.10;92.50;;;;;;4865308;29;20053;-79
2021/07/02 06:35:12;;;;;;;8.07;4.15;;;16.20;92.30;;;;;;4866002;29;20141;-78
2021/07/02 06:37:38;;;;;;;9.20;4.75;;;16.30;92.20;;;;;;4865540;29;20474;-78
2021/07/02 06:40:05;;;;;;;8.13;4.43;;;16.40;92.00;;;;;;4865293;29;20029;-78
2021/07/02 06:42:31;;;;;;;8.52;4.10;;;16.40;91.90;;;;;;4899046;29;20039;-78
2021/07/02 06:44:56;;;;;;;8.35;4.30;;;16.50;92.00;;;;;;4899331;29;20486;-79
2021/07/02 06:47:22;;;;;;;8.60;4.68;;;16.50;91.90;;;;;;4884091;29;20485;-78
2021/07/02 06:49:48;;;;;;;7.18;4.65;;;16.60;91.70;;;;;;4900215;29;20051;-79
2021/07/02 06:52:13;;;;;;;8.30;4.50;;;16.60;91.50;;;;;;4895620;29;20056;-78
2021/07/02 06:54:39;;;;;;;8.15;4.70;;;16.60;91.40;;;;;;4902915;29;20060;-78
2021/07/02 06:57:07;;;;;;;9.75;4.90;;;16.70;91.50;;;;;;4901828;29;20362;-78
2021/07/02 06:59:37;;;;;;;7.63;4.47;;;16.70;91.20;;;;;;4919457;29;20063;-78
2021/07/02 07:02:03;;;;;;;8.07;4.15;;;16.70;91.20;;;;;;4886062;29;20029;-79
2021/07/02 07:04:34;;;;;;;8.85;4.78;;;16.60;91.00;;;;;;4900273;29;20088;-78
2021/07/02 07:07:00;;;;;;;7.78;4.43;;;16.70;90.60;;;;;;4882748;29;20466;-78
2021/07/02 07:09:26;;;;;;;10.07;4.18;;;16.70;90.60;;;;;;4883516;29;20040;-78
2021/07/02 07:11:52;;;;;;;6.57;4.05;;;16.70;90.60;;;;;;4896517;29;20552;-78
2021/07/02 07:14:18;;;;;;;9.00;4.03;;;16.70;90.50;;;;;;4919044;29;20028;-79
2021/07/02 07:16:43;;;;;;;7.93;4.40;;;16.70;90.20;;;;;;4888628;29;20032;-78
2021/07/02 07:19:09;;;;;;;6.68;4.25;;;16.80;90.30;;;;;;4899424;29;20040;-77
2021/07/02 07:21:35;;;;;;;7.93;4.20;;;16.80;90.60;;;;;;4894741;29;20036;-77
2021/07/02 07:24:00;;;;;;;8.57;4.13;;;16.80;89.50;;;;;;4918282;29;20103;-78
2021/07/02 07:26:26;;;;;;;6.28;3.92;;;16.70;87.50;;;;;;4890436;29;20032;-78
2021/07/02 07:28:52;;;;;;;8.50;4.38;;;16.70;88.10;;;;;;4882162;29;20479;-80
2021/07/02 07:31:18;;;;;;;9.68;4.05;;;16.70;88.50;;;;;;4883157;29;20526;-79
2021/07/02 07:33:46;;;;;;;6.10;3.85;;;16.80;87.80;;;;;;4899786;29;20025;-79
2021/07/02 07:36:15;;;;;;;6.70;3.95;;;16.80;87.60;;;;;;4883126;29;20032;-77
2021/07/02 07:38:45;;;;;;;7.60;4.10;;;16.90;86.70;;;;;;4882495;29;20070;-78
2021/07/02 07:41:11;;;;;;;6.65;4.28;;;16.90;86.80;;;;;;4881990;29;20032;-79
2021/07/02 07:43:36;;;;;;;7.80;4.10;;;16.90;87.70;;;;;;4899391;29;20378;-79
2021/07/02 07:46:06;;;;;;;8.90;3.67;;;17.00;87.70;;;;;;4889693;29;20087;-79
2021/07/02 07:48:31;;;;;;;6.63;4.30;;;17.00;87.20;;;;;;4901411;29;20079;-79
2021/07/02 07:51:14;;;;;;;7.55;3.97;;;17.10;87.80;;;;;;4910796;29;20040;-79
2021/07/02 07:53:39;;;;;;;8.40;3.72;;;17.10;86.50;;;;;;4899382;29;20478;-79
2021/07/02 07:56:05;;;;;;;10.65;4.30;;;17.10;87.10;;;;;;4881952;29;20032;-78
2021/07/02 07:58:31;;;;;;;6.47;4.00;;;17.20;85.60;;;;;;4899383;29;20061;-79
2021/07/02 08:00:56;;;;;;;7.75;4.07;;;17.20;85.80;;;;;;4898696;29;20032;-78
2021/07/02 08:03:22;;;;;;;5.63;3.92;;;17.30;86.20;;;;;;4882392;29;20033;-78
2021/07/02 08:05:48;;;;;;;10.63;3.97;;;17.30;87.10;;;;;;4898632;29;20025;-78
2021/07/02 08:08:16;;;;;;;6.63;3.72;;;17.40;85.90;;;;;;4899106;29;20039;-79
2021/07/02 08:10:42;;;;;;;7.05;3.80;;;17.40;84.70;;;;;;4882049;29;20179;-78
2021/07/02 08:13:08;;;;;;;7.05;3.55;;;17.40;83.60;;;;;;4881761;29;20355;-78
2021/07/02 08:15:33;;;;;;;6.75;4.28;;;17.40;83.30;;;;;;4881768;29;20493;-78
2021/07/02 08:17:59;;;;;;;6.68;3.78;;;17.40;84.00;;;;;;4871930;29;20132;-86
2021/07/02 08:20:25;;;;;;;7.65;3.80;;;17.50;85.10;;;;;;4872346;29;20164;-86
2021/07/02 08:22:50;;;;;;;6.40;3.58;;;17.60;82.90;;;;;;4881492;29;20033;-84
2021/07/02 08:25:16;;;;;;;5.22;3.58;;;17.60;82.90;;;;;;4880211;29;20036;-85
2021/07/02 08:30:27;;;;;;;6.70;3.80;;;17.80;79.00;;;;;;4898393;29;20092;-86
2021/07/02 08:32:53;;;;;;;5.47;3.45;;;17.90;78.40;;;;;;4895886;29;20478;-81
2021/07/02 08:35:21;;;;;;;4.95;3.50;;;18.00;79.00;;;;;;4880909;29;20080;-86
2021/07/02 08:37:48;;;;;;;7.55;3.83;;;18.10;78.70;;;;;;4882375;29;20032;-87
2021/07/02 08:40:15;;;;;;;4.82;3.50;;;18.30;75.70;;;;;;4880322;29;20037;-83
2021/07/02 08:42:41;;;;;;;5.80;3.63;;;18.30;75.00;;;;;;4898390;29;20037;-82
2021/07/02 08:45:07;;;;;;;8.23;5.30;;;18.20;75.00;;;;;;4881725;29;20092;-82
2021/07/02 08:47:33;;;;;;;8.93;3.72;;;18.30;76.70;;;;;;4882295;29;20036;-82
2021/07/02 08:49:59;;;;;;;7.82;3.85;;;18.20;76.30;;;;;;4912529;29;20530;-82
2021/07/02 08:52:25;;;;;;;5.60;3.70;;;18.20;77.20;;;;;;4912545;29;20100;-82
2021/07/02 08:54:50;;;;;;;6.93;4.07;;;18.30;76.90;;;;;;4912377;29;20024;-82
2021/07/02 08:57:16;;;;;;;10.65;3.90;;;18.30;76.70;;;;;;4913501;29;20036;-82
2021/07/02 08:59:41;;;;;;;7.78;4.22;;;18.40;74.10;;;;;;4898166;29;20406;-82
2021/07/02 09:02:29;;;;;;;9.10;3.85;;;18.40;73.70;;;;;;4912490;29;20035;-82
2021/07/02 09:04:55;;;;;;;6.00;3.67;;;18.40;73.00;;;;;;4881857;29;20028;-82
2021/07/02 09:07:21;;;;;;;6.65;3.50;;;18.40;73.20;;;;;;4882231;29;20064;-82
2021/07/02 09:09:51;;;;;;;7.50;3.83;;;18.50;72.60;;;;;;4912810;29;20104;-81
2021/07/02 09:12:18;;;;;;;7.22;3.72;;;18.50;71.60;;;;;;4869492;29;20080;-80
2021/07/02 09:15:06;;;;;;;5.65;3.60;;;18.50;70.60;;;;;;4891662;29;20039;-80
2021/07/02 09:17:38;;;;;;;5.80;3.90;;;18.50;72.20;;;;;;4892854;29;20028;-82
2021/07/02 09:20:07;;;;;;;6.32;3.72;;;18.50;73.40;;;;;;4880772;29;20081;-84
2021/07/02 09:22:44;;;;;;;5.22;3.60;;;18.70;74.80;;;;;;4881758;29;20033;-83
2021/07/02 09:25:18;;;;;;;5.75;3.78;;;18.90;74.40;;;;;;4881527;29;20029;-84
2021/07/02 09:27:44;;;;;;;8.02;3.38;;;19.00;73.10;;;;;;4881908;29;20184;-84
2021/07/02 09:30:16;;;;;;;5.93;3.17;;;19.00;72.40;;;;;;4897142;29;20518;-83
2021/07/02 09:32:47;;;;;;;5.97;3.47;;;18.90;66.80;;;;;;4881644;29;20063;-84
2021/07/02 09:35:14;;;;;;;9.20;3.47;;;18.90;65.60;;;;;;4897578;29;20020;-82
2021/07/02 09:37:42;;;;;;;6.32;3.53;;;18.90;67.50;;;;;;4881477;29;20040;-85
2021/07/02 09:40:18;;;;;;;4.85;3.53;;;19.00;71.10;;;;;;4880250;29;20041;-81
2021/07/02 09:42:45;;;;;;;5.25;3.33;;;19.10;72.20;;;;;;4881269;29;20115;-81
2021/07/02 09:45:14;;;;;;;9.43;3.65;;;19.20;71.50;;;;;;4881309;29;20033;-81
2021/07/02 09:47:41;;;;;;;6.88;3.45;;;19.20;68.30;;;;;;4898063;29;20028;-82
2021/07/02 09:50:14;;;;;;;4.72;3.47;;;19.30;67.90;;;;;;4898025;29;20048;-80
2021/07/02 09:52:59;;;;;;;5.05;3.38;;;19.30;66.70;;;;;;4894531;29;20080;-88
2021/07/02 09:55:28;;;;;;;4.45;3.50;;;19.50;66.70;;;;;;4901952;29;20025;-81
2021/07/02 09:58:26;;;;;;;8.10;3.45;;;19.60;66.70;;;;;;4901979;29;20537;-87
2021/07/02 10:01:02;;;;;;;5.13;3.35;;;19.70;65.80;;;;;;4892639;29;20043;-84
2021/07/02 10:03:29;;;;;;;6.68;3.83;;;19.70;66.90;;;;;;4903861;29;20032;-81
2021/07/02 10:06:01;;;;;;;5.10;3.25;;;19.80;65.50;;;;;;4920223;29;20028;-85
2021/07/02 10:08:33;;;;;;;7.10;3.33;;;19.90;66.50;;;;;;4887433;29;20163;-84
2021/07/02 10:11:01;;;;;;;4.82;3.38;;;20.00;66.10;;;;;;4882419;29;20040;-78
2021/07/02 10:13:32;;;;;;;6.53;3.70;;;20.10;64.10;;;;;;4906633;29;20043;-78
2021/07/02 10:15:59;;;;;;;4.85;3.47;;;20.10;61.30;;;;;;4888603;29;20028;-79
2021/07/02 10:18:28;;;;;;;153.70;90.63;;;20.10;59.40;;;;;;4892609;29;20063;-78
2021/07/02 10:20:55;;;;;;;65.97;38.83;;;20.20;59.90;;;;;;4889438;29;20057;-81
2021/07/02 10:23:33;;;;;;;11.80;7.60;;;20.20;61.60;;;;;;4894539;29;20482;-83
2021/07/02 10:26:00;;;;;;;7.53;4.65;;;20.30;63.00;;;;;;4871355;29;20102;-86
2021/07/02 10:28:27;;;;;;;7.60;4.10;;;20.40;63.60;;;;;;4881358;29;20442;-84
2021/07/02 10:30:53;;;;;;;7.80;4.10;;;20.60;64.00;;;;;;4870266;29;20500;-84
2021/07/02 10:33:21;;;;;;;6.50;3.47;;;20.70;64.60;;;;;;4876003;29;20037;-86
2021/07/02 10:36:01;;;;;;;6.32;3.78;;;20.70;64.70;;;;;;4876923;29;20033;-87
2021/07/02 10:38:40;;;;;;;6.40;3.97;;;20.70;64.50;;;;;;4871414;29;20024;-86
2021/07/02 10:41:15;;;;;;;5.97;3.30;;;20.70;65.20;;;;;;4900215;29;20478;-86
2021/07/02 10:44:01;;;;;;;5.63;3.53;;;20.70;62.10;;;;;;4873333;29;20037;-87
2021/07/02 10:46:27;;;;;;;6.28;3.72;;;20.60;63.40;;;;;;4883561;29;20092;-81
2021/07/02 10:49:04;;;;;;;7.95;3.55;;;20.70;63.20;;;;;;4884287;29;20421;-83
2021/07/02 10:51:36;;;;;;;5.28;3.47;;;20.90;63.20;;;;;;4895214;29;20057;-82
2021/07/02 10:54:14;;;;;;;4.97;3.20;;;20.80;63.60;;;;;;4882038;29;20033;-81
2021/07/02 10:57:00;;;;;;;5.55;3.38;;;20.90;63.60;;;;;;4883613;29;20391;-81
2021/07/02 10:59:36;;;;;;;5.93;3.60;;;21.00;63.40;;;;;;4883857;29;20084;-82
2021/07/02 11:02:15;;;;;;;5.95;3.28;;;21.10;61.40;;;;;;4868234;29;20030;-87
2021/07/02 11:04:41;;;;;;;5.82;3.33;;;21.20;62.50;;;;;;4880922;29;20054;-87
2021/07/02 11:07:13;;;;;;;8.95;3.70;;;21.10;62.00;;;;;;4871346;29;20024;-86
2021/07/02 11:10:03;;;;;;;11.52;4.05;;;21.10;63.30;;;;;;4889817;29;20037;-85
2021/07/02 11:12:33;;;;;;;5.47;3.30;;;21.10;62.00;;;;;;4897004;29;20120;-85
2021/07/02 11:14:59;;;;;;;8.10;3.70;;;21.20;63.50;;;;;;4885690;29;20025;-85
2021/07/02 11:17:36;;;;;;;6.35;3.70;;;21.20;63.00;;;;;;4898235;29;20020;-85
2021/07/02 11:20:08;;;;;;;6.57;3.42;;;21.30;62.70;;;;;;4883194;29;20088;-83
2021/07/02 11:22:49;;;;;;;4.75;3.50;;;21.30;63.00;;;;;;4881166;29;20068;-88
2021/07/02 11:27:53;;;;;;;6.75;3.70;;;21.60;62.20;;;;;;4888363;29;20037;-83
2021/07/02 11:32:49;;;;;;;5.32;3.78;;;21.60;61.60;;;;;;4894577;29;20035;-82
2021/07/02 11:35:19;;;;;;;5.38;3.60;;;21.60;62.30;;;;;;4887433;29;20036;-83
2021/07/02 11:38:03;;;;;;;4.70;3.00;;;21.60;62.50;;;;;;4898799;29;20028;-83
2021/07/02 11:40:36;;;;;;;7.53;3.17;;;21.50;61.10;;;;;;4898297;29;20036;-82
2021/07/02 11:43:05;;;;;;;6.13;3.33;;;21.50;61.10;;;;;;4876570;29;20025;-82
2021/07/02 11:45:53;;;;;;;6.47;3.67;;;21.80;61.20;;;;;;4890165;29;20598;-83
2021/07/02 11:48:19;;;;;;;5.38;3.28;;;21.90;60.00;;;;;;4867290;29;20036;-80
2021/07/02 11:50:46;;;;;;;7.80;3.40;;;21.90;58.60;;;;;;4898972;29;20048;-87
2021/07/02 11:53:37;;;;;;;7.28;4.28;;;21.90;60.00;;;;;;4875181;29;20029;-85
2021/07/02 11:56:17;;;;;;;6.50;3.97;;;21.80;59.40;;;;;;4893590;29;20028;-85
2021/07/02 11:58:48;;;;;;;7.95;3.58;;;21.80;59.80;;;;;;4907200;29;20029;-85
2021/07/02 12:01:37;;;;;;;5.97;3.73;;;21.80;61.10;;;;;;4906890;29;20036;-85
2021/07/02 12:04:05;;;;;;;6.00;3.53;;;21.80;61.90;;;;;;4892901;29;20279;-85
2021/07/02 12:06:34;;;;;;;6.45;3.80;;;21.80;60.50;;;;;;4908804;29;20033;-85
2021/07/02 12:09:08;;;;;;;5.60;3.42;;;21.90;59.60;;;;;;4871706;29;20028;-86
2021/07/02 12:11:37;;;;;;;5.38;3.28;;;22.00;61.10;;;;;;4898995;29;20056;-87
2021/07/02 12:14:04;;;;;;;51.17;31.85;;;22.10;59.90;;;;;;4897273;29;20095;-82
2021/07/02 12:16:51;;;;;;;9.25;6.63;;;22.30;60.50;;;;;;4881786;29;20029;-83
2021/07/02 12:19:23;;;;;;;7.03;4.57;;;22.40;58.80;;;;;;4878718;29;20096;-83
2021/07/02 12:21:52;;;;;;;6.97;3.80;;;22.50;58.30;;;;;;4878488;29;20037;-83
2021/07/02 12:24:21;;;;;;;5.53;3.85;;;22.50;59.30;;;;;;4881873;29;20039;-85
2021/07/02 12:26:59;;;;;;;5.65;3.65;;;22.60;59.00;;;;;;4898747;29;20036;-84
2021/07/02 12:29:26;;;;;;;6.97;3.15;;;22.60;58.70;;;;;;4898879;29;20039;-85
2021/07/02 12:31:53;;;;;;;6.97;3.38;;;22.70;58.80;;;;;;4882292;29;20072;-81
2021/07/02 12:34:25;;;;;;;3.85;3.17;;;22.80;59.10;;;;;;4897777;29;20032;-83
2021/07/02 12:37:06;;;;;;;5.13;3.40;;;22.70;58.70;;;;;;4874195;29;20035;-82
2021/07/02 12:39:43;;;;;;;5.63;3.13;;;22.70;58.60;;;;;;4882236;29;20033;-87
2021/07/02 12:42:14;;;;;;;5.43;3.50;;;22.70;58.30;;;;;;4867049;29;20029;-87
2021/07/02 12:44:43;;;;;;;6.57;3.53;;;22.90;57.80;;;;;;4878633;29;20035;-88
2021/07/02 12:47:11;;;;;;;4.53;3.50;;;23.00;57.40;;;;;;4865341;29;20116;-86
2021/07/02 12:49:49;;;;;;;5.07;3.38;;;23.00;57.10;;;;;;4873645;29;20037;-85
2021/07/02 12:55:26;;;;;;;5.00;3.40;;;23.00;56.70;;;;;;4897632;29;20028;-85
2021/07/02 12:57:54;;;;;;;5.88;3.78;;;23.00;57.40;;;;;;4898517;29;20093;-85
2021/07/02 13:00:20;;;;;;;8.05;3.88;;;23.20;57.10;;;;;;4897936;29;20119;-84
2021/07/02 13:02:46;;;;;;;6.75;3.85;;;23.60;56.70;;;;;;4897353;29;20032;-84